sensor_id;sensor_type;location;lat;lon;timestamp;temperature;humidity
52963;DHT22;38827;53.024;6.596;2023-08-17T00:00:16;17.00;70.50
52963;DHT22;38827;53.024;6.596;2023-08-17T00:02:43;17.00;70.40
52963;DHT22;38827;53.024;6.596;2023-08-17T00:05:09;17.00;70.70
52963;DHT22;38827;53.024;6.596;2023-08-17T00:07:35;16.90;70.70
52963;DHT22;38827;53.024;6.596;2023-08-17T00:10:01;16.90;70.70
52963;DHT22;38827;53.024;6.596;2023-08-17T00:12:28;16.90;70.70
52963;DHT22;38827;53.024;6.596;2023-08-17T00:14:54;16.90;70.80
52963;DHT22;38827;53.024;6.596;2023-08-17T00:17:20;16.90;70.80
52963;DHT22;38827;53.024;6.596;2023-08-17T00:19:47;17.00;70.80
52963;DHT22;38827;53.024;6.596;2023-08-17T00:22:15;17.00;70.80
52963;DHT22;38827;53.024;6.596;2023-08-17T00:24:42;17.00;70.70
52963;DHT22;38827;53.024;6.596;2023-08-17T00:27:10;17.00;70.80
52963;DHT22;38827;53.024;6.596;2023-08-17T00:29:36;17.00;70.90
52963;DHT22;38827;53.024;6.596;2023-08-17T00:32:02;17.00;70.90
52963;DHT22;38827;53.024;6.596;2023-08-17T00:34:28;16.90;70.90
52963;DHT22;38827;53.024;6.596;2023-08-17T00:36:54;16.90;71.00
52963;DHT22;38827;53.024;6.596;2023-08-17T00:39:21;16.90;71.00
52963;DHT22;38827;53.024;6.596;2023-08-17T00:41:46;16.90;71.10
52963;DHT22;38827;53.024;6.596;2023-08-17T00:44:12;16.90;71.30
52963;DHT22;38827;53.024;6.596;2023-08-17T00:46:38;16.90;71.30
52963;DHT22;38827;53.024;6.596;2023-08-17T00:49:05;16.90;71.40
52963;DHT22;38827;53.024;6.596;2023-08-17T00:51:31;16.90;71.30
52963;DHT22;38827;53.024;6.596;2023-08-17T01:04:19;16.80;71.60
52963;DHT22;38827;53.024;6.596;2023-08-17T01:06:49;16.80;71.50
52963;DHT22;38827;53.024;6.596;2023-08-17T01:09:15;16.80;71.70
52963;DHT22;38827;53.024;6.596;2023-08-17T01:12:00;16.70;71.70
52963;DHT22;38827;53.024;6.596;2023-08-17T01:14:37;16.70;71.70
52963;DHT22;38827;53.024;6.596;2023-08-17T01:17:10;16.70;72.00
52963;DHT22;38827;53.024;6.596;2023-08-17T01:19:38;16.60;72.10
52963;DHT22;38827;53.024;6.596;2023-08-17T01:22:05;16.60;72.20
52963;DHT22;38827;53.024;6.596;2023-08-17T01:24:33;16.50;72.40
52963;DHT22;38827;53.024;6.596;2023-08-17T01:26:59;16.50;72.50
52963;DHT22;38827;53.024;6.596;2023-08-17T01:29:24;16.40;72.70
52963;DHT22;38827;53.024;6.596;2023-08-17T01:32:00;16.40;72.80
52963;DHT22;38827;53.024;6.596;2023-08-17T01:34:29;16.40;72.90
52963;DHT22;38827;53.024;6.596;2023-08-17T01:37:00;16.30;73.10
52963;DHT22;38827;53.024;6.596;2023-08-17T01:39:32;16.30;73.10
52963;DHT22;38827;53.024;6.596;2023-08-17T01:42:00;16.30;73.30
52963;DHT22;38827;53.024;6.596;2023-08-17T01:44:26;16.20;73.40
52963;DHT22;38827;53.024;6.596;2023-08-17T01:54:42;16.10;73.90
52963;DHT22;38827;53.024;6.596;2023-08-17T01:57:08;16.10;73.90
52963;DHT22;38827;53.024;6.596;2023-08-17T01:59:33;16.10;74.10
52963;DHT22;38827;53.024;6.596;2023-08-17T02:01:59;16.10;74.10
52963;DHT22;38827;53.024;6.596;2023-08-17T02:04:26;16.10;74.30
52963;DHT22;38827;53.024;6.596;2023-08-17T02:06:52;16.10;74.20
52963;DHT22;38827;53.024;6.596;2023-08-17T02:09:18;16.00;74.30
52963;DHT22;38827;53.024;6.596;2023-08-17T02:11:43;16.10;74.30
52963;DHT22;38827;53.024;6.596;2023-08-17T02:14:09;16.10;74.40
52963;DHT22;38827;53.024;6.596;2023-08-17T02:16:35;16.10;74.30
52963;DHT22;38827;53.024;6.596;2023-08-17T02:19:01;16.10;74.40
52963;DHT22;38827;53.024;6.596;2023-08-17T02:21:26;16.10;74.40
52963;DHT22;38827;53.024;6.596;2023-08-17T02:26:30;16.10;74.40
52963;DHT22;38827;53.024;6.596;2023-08-17T02:29:04;16.10;74.60
52963;DHT22;38827;53.024;6.596;2023-08-17T02:31:30;16.10;74.50
52963;DHT22;38827;53.024;6.596;2023-08-17T02:33:56;16.10;74.50
52963;DHT22;38827;53.024;6.596;2023-08-17T02:36:26;16.10;74.50
52963;DHT22;38827;53.024;6.596;2023-08-17T02:38:52;16.10;74.40
52963;DHT22;38827;53.024;6.596;2023-08-17T02:41:18;16.20;74.50
52963;DHT22;38827;53.024;6.596;2023-08-17T02:43:44;16.10;74.40
52963;DHT22;38827;53.024;6.596;2023-08-17T02:46:10;16.10;74.60
52963;DHT22;38827;53.024;6.596;2023-08-17T02:48:36;16.10;74.60
52963;DHT22;38827;53.024;6.596;2023-08-17T02:51:01;16.10;74.70
52963;DHT22;38827;53.024;6.596;2023-08-17T02:53:27;16.10;74.70
52963;DHT22;38827;53.024;6.596;2023-08-17T02:55:53;16.10;74.80
52963;DHT22;38827;53.024;6.596;2023-08-17T02:58:18;16.10;74.80
52963;DHT22;38827;53.024;6.596;2023-08-17T03:00:45;16.10;74.80
52963;DHT22;38827;53.024;6.596;2023-08-17T03:03:10;16.10;74.90
52963;DHT22;38827;53.024;6.596;2023-08-17T03:05:36;16.10;75.00
52963;DHT22;38827;53.024;6.596;2023-08-17T03:08:02;16.10;75.00
52963;DHT22;38827;53.024;6.596;2023-08-17T03:10:27;16.10;75.10
52963;DHT22;38827;53.024;6.596;2023-08-17T03:29:36;16.00;75.70
52963;DHT22;38827;53.024;6.596;2023-08-17T03:32:02;16.00;75.90
52963;DHT22;38827;53.024;6.596;2023-08-17T03:34:28;15.90;76.00
52963;DHT22;38827;53.024;6.596;2023-08-17T03:36:53;15.90;76.20
52963;DHT22;38827;53.024;6.596;2023-08-17T03:39:19;15.90;76.30
52963;DHT22;38827;53.024;6.596;2023-08-17T03:41:44;15.90;76.50
52963;DHT22;38827;53.024;6.596;2023-08-17T03:44:10;15.90;76.50
52963;DHT22;38827;53.024;6.596;2023-08-17T03:46:36;15.90;76.70
52963;DHT22;38827;53.024;6.596;2023-08-17T03:49:02;15.90;76.90
52963;DHT22;38827;53.024;6.596;2023-08-17T03:51:28;15.90;76.90
52963;DHT22;38827;53.024;6.596;2023-08-17T03:53:53;15.90;77.10
52963;DHT22;38827;53.024;6.596;2023-08-17T03:56:19;15.80;77.20
52963;DHT22;38827;53.024;6.596;2023-08-17T03:58:45;15.80;77.30
52963;DHT22;38827;53.024;6.596;2023-08-17T04:01:10;15.80;77.40
52963;DHT22;38827;53.024;6.596;2023-08-17T04:03:36;15.80;77.50
52963;DHT22;38827;53.024;6.596;2023-08-17T04:06:06;15.80;77.70
52963;DHT22;38827;53.024;6.596;2023-08-17T04:08:32;15.80;77.80
52963;DHT22;38827;53.024;6.596;2023-08-17T04:10:58;15.80;77.90
52963;DHT22;38827;53.024;6.596;2023-08-17T04:13:24;15.80;77.90
52963;DHT22;38827;53.024;6.596;2023-08-17T04:15:49;15.80;78.00
52963;DHT22;38827;53.024;6.596;2023-08-17T04:18:15;15.80;78.00
52963;DHT22;38827;53.024;6.596;2023-08-17T04:20:41;15.80;78.00
52963;DHT22;38827;53.024;6.596;2023-08-17T04:23:06;15.80;78.00
52963;DHT22;38827;53.024;6.596;2023-08-17T04:25:32;15.80;78.10
52963;DHT22;38827;53.024;6.596;2023-08-17T04:51:46;15.90;77.90
52963;DHT22;38827;53.024;6.596;2023-08-17T04:54:12;15.80;78.00
52963;DHT22;38827;53.024;6.596;2023-08-17T04:56:38;15.90;78.00
52963;DHT22;38827;53.024;6.596;2023-08-17T04:59:04;15.90;78.10
52963;DHT22;38827;53.024;6.596;2023-08-17T05:01:30;15.90;78.10
52963;DHT22;38827;53.024;6.596;2023-08-17T05:03:55;15.90;78.20
52963;DHT22;38827;53.024;6.596;2023-08-17T05:06:21;16.00;78.20
52963;DHT22;38827;53.024;6.596;2023-08-17T05:08:47;16.00;78.10
52963;DHT22;38827;53.024;6.596;2023-08-17T05:11:12;16.00;78.20
52963;DHT22;38827;53.024;6.596;2023-08-17T05:13:38;16.10;78.20
52963;DHT22;38827;53.024;6.596;2023-08-17T05:16:04;16.10;78.20
52963;DHT22;38827;53.024;6.596;2023-08-17T05:18:30;16.20;78.10
52963;DHT22;38827;53.024;6.596;2023-08-17T05:20:56;16.20;77.90
52963;DHT22;38827;53.024;6.596;2023-08-17T05:23:22;16.30;77.90
52963;DHT22;38827;53.024;6.596;2023-08-17T05:25:47;16.30;77.80
52963;DHT22;38827;53.024;6.596;2023-08-17T05:28:13;16.30;77.70
52963;DHT22;38827;53.024;6.596;2023-08-17T05:30:39;16.30;77.60
52963;DHT22;38827;53.024;6.596;2023-08-17T05:33:07;16.30;77.60
52963;DHT22;38827;53.024;6.596;2023-08-17T05:35:32;16.30;77.70
52963;DHT22;38827;53.024;6.596;2023-08-17T05:37:58;16.40;77.60
52963;DHT22;38827;53.024;6.596;2023-08-17T05:40:24;16.40;77.60
52963;DHT22;38827;53.024;6.596;2023-08-17T05:42:49;16.30;77.60
52963;DHT22;38827;53.024;6.596;2023-08-17T05:45:18;16.30;77.50
52963;DHT22;38827;53.024;6.596;2023-08-17T05:47:47;16.30;77.70
52963;DHT22;38827;53.024;6.596;2023-08-17T05:50:12;16.30;77.70
52963;DHT22;38827;53.024;6.596;2023-08-17T05:52:38;16.30;77.70
52963;DHT22;38827;53.024;6.596;2023-08-17T05:55:04;16.30;77.50
52963;DHT22;38827;53.024;6.596;2023-08-17T05:57:30;16.30;77.60
52963;DHT22;38827;53.024;6.596;2023-08-17T05:59:55;16.40;77.60
52963;DHT22;38827;53.024;6.596;2023-08-17T06:02:21;16.40;77.70
52963;DHT22;38827;53.024;6.596;2023-08-17T06:04:50;16.50;77.60
52963;DHT22;38827;53.024;6.596;2023-08-17T06:07:15;16.50;77.60
52963;DHT22;38827;53.024;6.596;2023-08-17T06:09:44;16.50;77.50
52963;DHT22;38827;53.024;6.596;2023-08-17T06:12:09;16.60;77.40
52963;DHT22;38827;53.024;6.596;2023-08-17T06:14:36;16.60;77.30
52963;DHT22;38827;53.024;6.596;2023-08-17T06:17:02;16.70;77.20
52963;DHT22;38827;53.024;6.596;2023-08-17T06:19:28;16.70;77.00
52963;DHT22;38827;53.024;6.596;2023-08-17T06:21:54;16.80;77.00
52963;DHT22;38827;53.024;6.596;2023-08-17T06:24:19;16.90;76.80
52963;DHT22;38827;53.024;6.596;2023-08-17T06:26:45;16.90;76.70
52963;DHT22;38827;53.024;6.596;2023-08-17T06:29:11;16.90;76.50
52963;DHT22;38827;53.024;6.596;2023-08-17T06:31:37;16.90;76.50
52963;DHT22;38827;53.024;6.596;2023-08-17T06:34:03;17.00;76.40
52963;DHT22;38827;53.024;6.596;2023-08-17T06:36:32;17.00;76.30
52963;DHT22;38827;53.024;6.596;2023-08-17T06:38:59;17.10;76.20
52963;DHT22;38827;53.024;6.596;2023-08-17T06:41:25;17.10;76.10
52963;DHT22;38827;53.024;6.596;2023-08-17T06:43:51;17.10;76.00
52963;DHT22;38827;53.024;6.596;2023-08-17T06:46:17;17.10;75.90
52963;DHT22;38827;53.024;6.596;2023-08-17T06:48:43;17.20;75.70
52963;DHT22;38827;53.024;6.596;2023-08-17T06:51:09;17.20;75.70
52963;DHT22;38827;53.024;6.596;2023-08-17T06:53:34;17.20;75.70
52963;DHT22;38827;53.024;6.596;2023-08-17T06:56:00;17.30;75.60
52963;DHT22;38827;53.024;6.596;2023-08-17T06:58:26;17.30;75.20
52963;DHT22;38827;53.024;6.596;2023-08-17T07:00:54;17.30;75.00
52963;DHT22;38827;53.024;6.596;2023-08-17T07:03:20;17.40;74.90
52963;DHT22;38827;53.024;6.596;2023-08-17T07:05:46;17.50;74.80
52963;DHT22;38827;53.024;6.596;2023-08-17T07:08:11;17.60;74.30
52963;DHT22;38827;53.024;6.596;2023-08-17T07:10:38;17.70;73.70
52963;DHT22;38827;53.024;6.596;2023-08-17T07:13:04;17.80;73.40
52963;DHT22;38827;53.024;6.596;2023-08-17T07:15:32;17.90;73.10
52963;DHT22;38827;53.024;6.596;2023-08-17T07:20:42;18.00;72.00
52963;DHT22;38827;53.024;6.596;2023-08-17T07:23:16;18.10;71.60
52963;DHT22;38827;53.024;6.596;2023-08-17T07:25:42;18.10;71.10
52963;DHT22;38827;53.024;6.596;2023-08-17T07:28:08;18.10;71.10
52963;DHT22;38827;53.024;6.596;2023-08-17T07:30:33;18.20;71.10
52963;DHT22;38827;53.024;6.596;2023-08-17T07:32:59;18.20;70.90
52963;DHT22;38827;53.024;6.596;2023-08-17T07:35:25;18.20;70.50
52963;DHT22;38827;53.024;6.596;2023-08-17T07:37:50;18.30;70.20
52963;DHT22;38827;53.024;6.596;2023-08-17T07:40:18;18.30;69.70
52963;DHT22;38827;53.024;6.596;2023-08-17T07:42:47;18.30;69.30
52963;DHT22;38827;53.024;6.596;2023-08-17T07:45:13;18.40;69.00
52963;DHT22;38827;53.024;6.596;2023-08-17T07:47:39;18.50;68.80
52963;DHT22;38827;53.024;6.596;2023-08-17T07:50:06;18.60;68.50
52963;DHT22;38827;53.024;6.596;2023-08-17T07:52:31;18.70;68.00
52963;DHT22;38827;53.024;6.596;2023-08-17T07:54:57;18.80;67.50
52963;DHT22;38827;53.024;6.596;2023-08-17T07:57:23;18.90;67.60
52963;DHT22;38827;53.024;6.596;2023-08-17T07:59:48;19.00;67.40
52963;DHT22;38827;53.024;6.596;2023-08-17T08:02:14;19.00;67.10
52963;DHT22;38827;53.024;6.596;2023-08-17T08:04:40;19.10;66.60
52963;DHT22;38827;53.024;6.596;2023-08-17T08:07:09;19.10;66.30
52963;DHT22;38827;53.024;6.596;2023-08-17T08:09:35;19.10;66.30
52963;DHT22;38827;53.024;6.596;2023-08-17T08:14:43;19.20;66.20
52963;DHT22;38827;53.024;6.596;2023-08-17T08:17:10;19.30;65.20
52963;DHT22;38827;53.024;6.596;2023-08-17T08:19:36;19.20;65.50
52963;DHT22;38827;53.024;6.596;2023-08-17T08:22:02;19.30;65.60
52963;DHT22;38827;53.024;6.596;2023-08-17T08:24:28;19.40;65.40
52963;DHT22;38827;53.024;6.596;2023-08-17T08:26:59;19.50;65.00
52963;DHT22;38827;53.024;6.596;2023-08-17T08:29:25;19.70;64.60
52963;DHT22;38827;53.024;6.596;2023-08-17T08:31:50;20.00;64.00
52963;DHT22;38827;53.024;6.596;2023-08-17T08:34:16;20.20;63.40
52963;DHT22;38827;53.024;6.596;2023-08-17T08:36:41;20.50;62.70
52963;DHT22;38827;53.024;6.596;2023-08-17T08:39:07;20.90;61.70
52963;DHT22;38827;53.024;6.596;2023-08-17T08:41:34;21.70;60.50
52963;DHT22;38827;53.024;6.596;2023-08-17T08:44:02;22.30;58.40
52963;DHT22;38827;53.024;6.596;2023-08-17T08:46:30;22.70;57.20
52963;DHT22;38827;53.024;6.596;2023-08-17T08:48:56;22.80;56.60
52963;DHT22;38827;53.024;6.596;2023-08-17T08:51:27;22.60;56.80
52963;DHT22;38827;53.024;6.596;2023-08-17T08:54:02;22.50;57.00
52963;DHT22;38827;53.024;6.596;2023-08-17T08:56:32;22.50;56.30
52963;DHT22;38827;53.024;6.596;2023-08-17T08:59:04;22.20;57.30
52963;DHT22;38827;53.024;6.596;2023-08-17T09:01:33;22.10;57.50
52963;DHT22;38827;53.024;6.596;2023-08-17T09:04:02;22.20;57.20
52963;DHT22;38827;53.024;6.596;2023-08-17T09:06:29;22.30;57.20
52963;DHT22;38827;53.024;6.596;2023-08-17T09:08:57;22.30;57.10
52963;DHT22;38827;53.024;6.596;2023-08-17T09:11:23;22.50;57.10
52963;DHT22;38827;53.024;6.596;2023-08-17T09:13:50;22.80;56.20
52963;DHT22;38827;53.024;6.596;2023-08-17T09:16:15;22.80;56.10
52963;DHT22;38827;53.024;6.596;2023-08-17T09:18:41;22.70;56.30
52963;DHT22;38827;53.024;6.596;2023-08-17T09:21:07;22.60;56.70
52963;DHT22;38827;53.024;6.596;2023-08-17T09:23:33;22.70;56.40
52963;DHT22;38827;53.024;6.596;2023-08-17T09:26:08;22.70;56.30
52963;DHT22;38827;53.024;6.596;2023-08-17T09:28:33;22.60;56.50
52963;DHT22;38827;53.024;6.596;2023-08-17T09:31:04;22.50;56.90
52963;DHT22;38827;53.024;6.596;2023-08-17T09:33:31;22.50;57.10
52963;DHT22;38827;53.024;6.596;2023-08-17T09:35:58;22.70;56.70
52963;DHT22;38827;53.024;6.596;2023-08-17T09:38:24;23.00;56.20
52963;DHT22;38827;53.024;6.596;2023-08-17T09:40:51;23.20;55.80
52963;DHT22;38827;53.024;6.596;2023-08-17T09:43:18;23.50;55.40
52963;DHT22;38827;53.024;6.596;2023-08-17T09:45:44;23.70;55.10
52963;DHT22;38827;53.024;6.596;2023-08-17T09:48:16;23.80;54.10
52963;DHT22;38827;53.024;6.596;2023-08-17T09:50:47;23.60;54.60
52963;DHT22;38827;53.024;6.596;2023-08-17T09:53:14;23.40;55.20
52963;DHT22;38827;53.024;6.596;2023-08-17T09:55:40;23.30;55.20
52963;DHT22;38827;53.024;6.596;2023-08-17T09:58:07;23.10;55.40
52963;DHT22;38827;53.024;6.596;2023-08-17T10:00:34;23.10;55.60
52963;DHT22;38827;53.024;6.596;2023-08-17T10:03:02;23.00;55.60
52963;DHT22;38827;53.024;6.596;2023-08-17T10:05:37;22.90;55.90
52963;DHT22;38827;53.024;6.596;2023-08-17T10:08:05;22.80;56.40
52963;DHT22;38827;53.024;6.596;2023-08-17T10:10:35;22.80;56.40
52963;DHT22;38827;53.024;6.596;2023-08-17T10:13:12;22.90;56.20
52963;DHT22;38827;53.024;6.596;2023-08-17T10:15:53;23.10;55.80
52963;DHT22;38827;53.024;6.596;2023-08-17T10:21:02;24.80;52.90
52963;DHT22;38827;53.024;6.596;2023-08-17T10:23:30;25.80;51.10
52963;DHT22;38827;53.024;6.596;2023-08-17T10:25:56;26.20;50.50
52963;DHT22;38827;53.024;6.596;2023-08-17T10:28:23;26.70;49.30
52963;DHT22;38827;53.024;6.596;2023-08-17T10:30:49;26.80;48.30
52963;DHT22;38827;53.024;6.596;2023-08-17T10:33:16;26.40;48.60
52963;DHT22;38827;53.024;6.596;2023-08-17T10:35:42;25.70;49.60
52963;DHT22;38827;53.024;6.596;2023-08-17T10:38:08;25.30;50.50
52963;DHT22;38827;53.024;6.596;2023-08-17T10:40:36;25.10;50.90
52963;DHT22;38827;53.024;6.596;2023-08-17T10:43:02;24.80;51.50
52963;DHT22;38827;53.024;6.596;2023-08-17T10:45:30;24.60;52.40
52963;DHT22;38827;53.024;6.596;2023-08-17T10:50:30;24.10;53.20
52963;DHT22;38827;53.024;6.596;2023-08-17T10:52:56;23.90;53.50
52963;DHT22;38827;53.024;6.596;2023-08-17T10:55:39;23.90;54.10
52963;DHT22;38827;53.024;6.596;2023-08-17T10:58:27;23.80;54.00
52963;DHT22;38827;53.024;6.596;2023-08-17T11:00:56;23.80;54.30
52963;DHT22;38827;53.024;6.596;2023-08-17T11:03:22;23.70;54.70
52963;DHT22;38827;53.024;6.596;2023-08-17T11:05:49;23.80;54.70
52963;DHT22;38827;53.024;6.596;2023-08-17T11:13:34;24.00;54.40
52963;DHT22;38827;53.024;6.596;2023-08-17T11:16:01;23.80;55.00
52963;DHT22;38827;53.024;6.596;2023-08-17T11:18:28;23.50;55.20
52963;DHT22;38827;53.024;6.596;2023-08-17T11:20:54;23.30;55.80
52963;DHT22;38827;53.024;6.596;2023-08-17T11:23:23;23.00;56.30
52963;DHT22;38827;53.024;6.596;2023-08-17T11:25:51;22.80;56.80
52963;DHT22;38827;53.024;6.596;2023-08-17T11:28:17;22.60;57.30
52963;DHT22;38827;53.024;6.596;2023-08-17T11:30:45;22.40;57.90
52963;DHT22;38827;53.024;6.596;2023-08-17T11:33:10;22.30;58.20
52963;DHT22;38827;53.024;6.596;2023-08-17T11:35:36;22.30;58.30
52963;DHT22;38827;53.024;6.596;2023-08-17T11:38:03;22.20;58.50
52963;DHT22;38827;53.024;6.596;2023-08-17T11:40:29;22.20;59.00
52963;DHT22;38827;53.024;6.596;2023-08-17T11:42:55;22.20;59.00
52963;DHT22;38827;53.024;6.596;2023-08-17T11:45:21;22.20;58.80
52963;DHT22;38827;53.024;6.596;2023-08-17T11:47:48;22.20;59.10
52963;DHT22;38827;53.024;6.596;2023-08-17T11:50:14;22.30;58.90
52963;DHT22;38827;53.024;6.596;2023-08-17T11:52:40;22.30;59.00
52963;DHT22;38827;53.024;6.596;2023-08-17T11:55:07;22.30;59.00
52963;DHT22;38827;53.024;6.596;2023-08-17T12:06:47;22.50;59.50
52963;DHT22;38827;53.024;6.596;2023-08-17T12:09:25;22.70;59.10
52963;DHT22;38827;53.024;6.596;2023-08-17T12:11:58;22.90;58.80
52963;DHT22;38827;53.024;6.596;2023-08-17T12:22:02;23.00;58.50
52963;DHT22;38827;53.024;6.596;2023-08-17T12:24:53;22.90;58.60
52963;DHT22;38827;53.024;6.596;2023-08-17T12:27:22;22.80;58.70
52963;DHT22;38827;53.024;6.596;2023-08-17T12:29:48;22.80;59.10
52963;DHT22;38827;53.024;6.596;2023-08-17T12:32:35;22.90;58.70
52963;DHT22;38827;53.024;6.596;2023-08-17T12:35:16;22.90;58.70
52963;DHT22;38827;53.024;6.596;2023-08-17T12:37:54;22.90;58.70
52963;DHT22;38827;53.024;6.596;2023-08-17T12:40:42;23.00;58.50
52963;DHT22;38827;53.024;6.596;2023-08-17T12:43:36;22.90;58.50
52963;DHT22;38827;53.024;6.596;2023-08-17T12:46:17;23.00;58.80
52963;DHT22;38827;53.024;6.596;2023-08-17T13:02:15;22.60;59.80
52963;DHT22;38827;53.024;6.596;2023-08-17T13:04:55;22.60;60.10
52963;DHT22;38827;53.024;6.596;2023-08-17T13:07:24;22.50;60.00
52963;DHT22;38827;53.024;6.596;2023-08-17T13:10:08;22.40;60.30
52963;DHT22;38827;53.024;6.596;2023-08-17T13:12:52;22.40;60.60
52963;DHT22;38827;53.024;6.596;2023-08-17T13:15:52;22.40;60.70
52963;DHT22;38827;53.024;6.596;2023-08-17T13:18:48;22.40;61.00
52963;DHT22;38827;53.024;6.596;2023-08-17T13:45:56;22.00;61.80
52963;DHT22;38827;53.024;6.596;2023-08-17T13:48:37;22.00;61.80
52963;DHT22;38827;53.024;6.596;2023-08-17T13:51:23;21.90;62.00
52963;DHT22;38827;53.024;6.596;2023-08-17T13:56:55;21.80;62.40
52963;DHT22;38827;53.024;6.596;2023-08-17T13:59:41;21.70;62.60
52963;DHT22;38827;53.024;6.596;2023-08-17T14:02:13;21.70;62.50
52963;DHT22;38827;53.024;6.596;2023-08-17T14:16:06;21.50;63.10
52963;DHT22;38827;53.024;6.596;2023-08-17T14:21:38;21.50;63.60
52963;DHT22;38827;53.024;6.596;2023-08-17T14:28:31;21.30;63.60
52963;DHT22;38827;53.024;6.596;2023-08-17T14:30:57;21.20;64.30
52963;DHT22;38827;53.024;6.596;2023-08-17T14:33:57;21.20;64.40
52963;DHT22;38827;53.024;6.596;2023-08-17T14:36:41;21.10;64.60
52963;DHT22;38827;53.024;6.596;2023-08-17T14:39:16;21.10;64.80
52963;DHT22;38827;53.024;6.596;2023-08-17T14:41:54;21.10;65.30
52963;DHT22;38827;53.024;6.596;2023-08-17T14:44:39;21.10;65.20
52963;DHT22;38827;53.024;6.596;2023-08-17T14:47:17;21.00;65.30
52963;DHT22;38827;53.024;6.596;2023-08-17T14:49:43;21.00;65.50
52963;DHT22;38827;53.024;6.596;2023-08-17T15:03:34;20.90;66.60
52963;DHT22;38827;53.024;6.596;2023-08-17T15:13:21;20.90;66.60
52963;DHT22;38827;53.024;6.596;2023-08-17T15:16:19;20.90;66.80
52963;DHT22;38827;53.024;6.596;2023-08-17T15:22:56;21.00;66.70
52963;DHT22;38827;53.024;6.596;2023-08-17T15:25:23;21.10;66.40
52963;DHT22;38827;53.024;6.596;2023-08-17T15:28:04;21.20;66.40
52963;DHT22;38827;53.024;6.596;2023-08-17T15:30:33;21.20;66.40
52963;DHT22;38827;53.024;6.596;2023-08-17T15:33:17;21.20;66.50
52963;DHT22;38827;53.024;6.596;2023-08-17T15:35:49;21.20;66.20
52963;DHT22;38827;53.024;6.596;2023-08-17T15:38:18;21.10;66.50
52963;DHT22;38827;53.024;6.596;2023-08-17T15:43:28;21.10;66.80
52963;DHT22;38827;53.024;6.596;2023-08-17T15:46:05;21.00;67.00
52963;DHT22;38827;53.024;6.596;2023-08-17T15:48:54;21.00;66.90
52963;DHT22;38827;53.024;6.596;2023-08-17T15:58:23;20.90;67.30
52963;DHT22;38827;53.024;6.596;2023-08-17T16:00:49;20.90;67.60
52963;DHT22;38827;53.024;6.596;2023-08-17T16:03:14;20.90;67.80
52963;DHT22;38827;53.024;6.596;2023-08-17T16:05:41;20.90;67.70
52963;DHT22;38827;53.024;6.596;2023-08-17T16:08:07;20.90;67.80
52963;DHT22;38827;53.024;6.596;2023-08-17T16:10:35;20.90;67.80
52963;DHT22;38827;53.024;6.596;2023-08-17T16:36:13;20.90;68.10
52963;DHT22;38827;53.024;6.596;2023-08-17T16:39:12;20.90;68.40
52963;DHT22;38827;53.024;6.596;2023-08-17T16:41:41;20.90;68.10
52963;DHT22;38827;53.024;6.596;2023-08-17T16:44:22;20.80;68.60
52963;DHT22;38827;53.024;6.596;2023-08-17T16:46:48;20.70;68.60
52963;DHT22;38827;53.024;6.596;2023-08-17T16:49:16;20.60;68.90
52963;DHT22;38827;53.024;6.596;2023-08-17T16:51:42;20.60;69.00
52963;DHT22;38827;53.024;6.596;2023-08-17T16:54:08;20.60;69.20
52963;DHT22;38827;53.024;6.596;2023-08-17T16:56:34;20.60;69.30
52963;DHT22;38827;53.024;6.596;2023-08-17T16:58:59;20.50;69.50
52963;DHT22;38827;53.024;6.596;2023-08-17T17:01:25;20.50;69.50
52963;DHT22;38827;53.024;6.596;2023-08-17T17:03:51;20.40;69.70
52963;DHT22;38827;53.024;6.596;2023-08-17T17:06:18;20.40;69.90
52963;DHT22;38827;53.024;6.596;2023-08-17T17:08:44;20.30;70.10
52963;DHT22;38827;53.024;6.596;2023-08-17T17:11:10;20.20;70.30
52963;DHT22;38827;53.024;6.596;2023-08-17T17:13:35;20.10;70.50
52963;DHT22;38827;53.024;6.596;2023-08-17T17:18:37;20.10;70.80
52963;DHT22;38827;53.024;6.596;2023-08-17T17:21:02;20.10;70.80
52963;DHT22;38827;53.024;6.596;2023-08-17T17:23:28;20.10;70.80
52963;DHT22;38827;53.024;6.596;2023-08-17T17:25:54;20.00;71.00
52963;DHT22;38827;53.024;6.596;2023-08-17T17:28:19;20.00;71.10
52963;DHT22;38827;53.024;6.596;2023-08-17T17:30:46;20.00;71.10
52963;DHT22;38827;53.024;6.596;2023-08-17T17:33:12;19.90;71.00
52963;DHT22;38827;53.024;6.596;2023-08-17T17:35:38;19.90;70.90
52963;DHT22;38827;53.024;6.596;2023-08-17T17:38:03;19.90;70.90
52963;DHT22;38827;53.024;6.596;2023-08-17T17:40:29;19.90;70.60
52963;DHT22;38827;53.024;6.596;2023-08-17T17:42:55;19.90;70.50
52963;DHT22;38827;53.024;6.596;2023-08-17T17:45:21;19.80;70.30
52963;DHT22;38827;53.024;6.596;2023-08-17T17:47:47;19.80;70.20
52963;DHT22;38827;53.024;6.596;2023-08-17T17:50:12;19.70;70.20
52963;DHT22;38827;53.024;6.596;2023-08-17T17:52:38;19.70;70.10
52963;DHT22;38827;53.024;6.596;2023-08-17T17:55:04;19.60;70.20
52963;DHT22;38827;53.024;6.596;2023-08-17T17:57:30;19.50;70.40
52963;DHT22;38827;53.024;6.596;2023-08-17T17:59:56;19.40;70.50
52963;DHT22;38827;53.024;6.596;2023-08-17T18:02:24;19.40;70.60
52963;DHT22;38827;53.024;6.596;2023-08-17T18:04:51;19.30;70.20
52963;DHT22;38827;53.024;6.596;2023-08-17T18:07:17;19.20;70.20
52963;DHT22;38827;53.024;6.596;2023-08-17T18:09:43;19.20;70.10
52963;DHT22;38827;53.024;6.596;2023-08-17T18:12:10;19.10;70.30
52963;DHT22;38827;53.024;6.596;2023-08-17T18:14:37;19.00;70.50
52963;DHT22;38827;53.024;6.596;2023-08-17T18:17:03;19.00;70.60
52963;DHT22;38827;53.024;6.596;2023-08-17T18:19:29;18.90;70.70
52963;DHT22;38827;53.024;6.596;2023-08-17T18:21:54;18.80;71.00
52963;DHT22;38827;53.024;6.596;2023-08-17T18:24:20;18.80;71.20
52963;DHT22;38827;53.024;6.596;2023-08-17T18:26:46;18.70;71.40
52963;DHT22;38827;53.024;6.596;2023-08-17T18:29:12;18.70;71.60
52963;DHT22;38827;53.024;6.596;2023-08-17T18:31:38;18.60;72.00
52963;DHT22;38827;53.024;6.596;2023-08-17T18:34:07;18.50;72.20
52963;DHT22;38827;53.024;6.596;2023-08-17T18:36:32;18.50;72.40
52963;DHT22;38827;53.024;6.596;2023-08-17T18:38:59;18.50;72.50
52963;DHT22;38827;53.024;6.596;2023-08-17T18:41:27;18.40;72.30
52963;DHT22;38827;53.024;6.596;2023-08-17T18:43:53;18.40;72.50
52963;DHT22;38827;53.024;6.596;2023-08-17T18:46:19;18.50;72.60
52963;DHT22;38827;53.024;6.596;2023-08-17T18:48:45;18.50;72.70
52963;DHT22;38827;53.024;6.596;2023-08-17T18:51:10;18.50;72.70
52963;DHT22;38827;53.024;6.596;2023-08-17T18:53:39;18.50;72.80
52963;DHT22;38827;53.024;6.596;2023-08-17T18:56:04;18.50;72.70
52963;DHT22;38827;53.024;6.596;2023-08-17T18:58:30;18.40;72.80
52963;DHT22;38827;53.024;6.596;2023-08-17T19:00:56;18.40;72.90
52963;DHT22;38827;53.024;6.596;2023-08-17T19:03:21;18.40;72.70
52963;DHT22;38827;53.024;6.596;2023-08-17T19:05:47;18.40;72.50
52963;DHT22;38827;53.024;6.596;2023-08-17T19:08:13;18.40;72.30